createdAt,value
2023-02-02T08:53:20.280Z,8.80
2023-02-02T09:08:25.462Z,7.40
2023-02-02T09:23:30.907Z,6.47
2023-02-02T09:38:35.722Z,5.78
2023-02-02T09:53:55.296Z,7.82
2023-02-02T10:09:07.280Z,7.93
2023-02-02T10:39:33.146Z,37.92
2023-02-02T10:54:58.203Z,37.67
2023-02-02T11:10:03.395Z,53.88
2023-02-02T11:25:22.984Z,38.10
2023-02-02T11:40:34.205Z,32.55
2023-02-02T11:55:38.785Z,30.45
2023-02-02T12:10:46.955Z,28.00
2023-02-02T12:26:19.187Z,25.52
2023-02-02T12:41:37.423Z,24.65
2023-02-02T12:56:46.137Z,23.95
2023-02-02T13:11:55.888Z,24.20
2023-02-02T13:27:04.086Z,19.50
2023-02-02T13:42:16.935Z,18.42
2023-02-02T13:57:42.597Z,18.35
2023-02-02T14:12:47.335Z,15.50
2023-02-02T14:28:02.029Z,16.50
2023-02-02T14:43:35.267Z,15.05
2023-02-02T14:58:44.172Z,13.23
2023-02-02T15:13:53.889Z,13.95
2023-02-02T15:29:02.385Z,13.75
2023-02-02T15:44:19.784Z,14.93
2023-02-02T15:59:26.976Z,11.07
2023-02-02T16:14:34.183Z,10.43
2023-02-02T16:29:41.179Z,10.35
2023-02-02T16:44:45.782Z,10.90
2023-02-02T16:59:54.036Z,11.35
2023-02-02T17:15:01.613Z,9.90
2023-02-02T17:30:07.836Z,10.82
2023-02-02T17:45:18.843Z,8.23
2023-02-02T18:00:28.041Z,12.45
2023-02-02T18:15:35.172Z,6.80
2023-02-02T18:30:41.148Z,6.22
2023-02-02T18:45:45.799Z,7.03
2023-02-02T19:00:50.347Z,7.80
2023-02-02T19:15:55.440Z,5.03
2023-02-02T19:31:01.927Z,6.88
2023-02-02T19:46:17.777Z,5.43
